Time;durP1;ratioP1;P1;durP2;ratioP2;P2;SDS_P1;SDS_P2;PMS_P1;PMS_P2;Temp;Humidity;BMP_temperature;BMP_pressure;BME280_temperature;BME280_humidity;BME280_pressure;Samples;Min_cycle;Max_cycle;Signal;HPM_P1;HPM_P2
2023/08/22 00:00:09;;;;;;;;;5.75;3.75;;;;;24.62;45.86;101660.31;5056122;28;45340;-49
2023/08/22 00:02:34;;;;;;;;;1.40;1.40;;;;;24.59;45.92;101659.91;5055512;28;45365;-47
2023/08/22 00:04:59;;;;;;;;;3.50;2.50;;;;;24.57;45.74;101657.44;5056055;28;45528;-45
2023/08/22 00:07:25;;;;;;;;;3.00;2.00;;;;;24.53;45.96;101645.31;5055687;28;46125;-48
2023/08/22 00:09:50;;;;;;;;;2.00;2.00;;;;;24.54;45.50;101649.69;5055576;28;45493;-49
2023/08/22 00:12:15;;;;;;;;;2.75;2.75;;;;;24.53;45.74;101655.34;5055852;28;45333;-43
2023/08/22 00:14:41;;;;;;;;;4.00;2.00;;;;;24.52;46.34;101661.81;5055883;28;45503;-46
2023/08/22 00:17:08;;;;;;;;;1.00;1.00;;;;;24.51;46.05;101660.16;5055417;28;46293;-46
2023/08/22 00:19:34;;;;;;;;;3.00;3.00;;;;;24.46;46.48;101652.66;5055439;28;45397;-52
2023/08/22 00:21:59;;;;;;;;;3.00;2.40;;;;;24.47;46.12;101656.22;5055719;28;46062;-47
2023/08/22 00:24:25;;;;;;;;;4.50;2.00;;;;;24.40;45.74;101648.09;5055391;28;45501;-46
2023/08/22 00:26:51;;;;;;;;;1.80;1.80;;;;;24.41;46.77;101644.31;5055364;28;46540;-48
2023/08/22 00:29:17;;;;;;;;;0.50;0.50;;;;;24.39;45.98;101649.13;5055296;28;47495;-50
2023/08/22 00:31:42;;;;;;;;;3.75;1.00;;;;;24.37;46.68;101652.06;5055240;28;48726;-49
2023/08/22 00:34:07;;;;;;;;;0.00;0.00;;;;;24.35;46.71;101647.84;5055578;28;45380;-46
2023/08/22 00:36:32;;;;;;;;;3.00;2.00;;;;;24.30;46.68;101640.34;5055073;28;46111;-47
2023/08/22 00:38:58;;;;;;;;;1.25;0.25;;;;;24.23;46.87;101630.53;5055444;28;45424;-51
2023/08/22 00:41:23;;;;;;;;;2.25;1.00;;;;;24.27;47.14;101642.66;5055348;28;45382;-45
2023/08/22 00:43:48;;;;;;;;;1.25;1.25;;;;;24.23;46.88;101639.56;5055546;28;45253;-48
2023/08/22 00:46:14;;;;;;;;;2.00;2.00;;;;;24.25;46.36;101647.50;5054934;28;46218;-49
2023/08/22 00:48:39;;;;;;;;;3.75;2.00;;;;;24.23;46.82;101644.13;5057500;28;45257;-46
2023/08/22 00:51:06;;;;;;;;;1.00;1.00;;;;;24.21;47.52;101641.66;5058500;28;45475;-45
2023/08/22 00:53:33;;;;;;;;;1.60;1.60;;;;;24.21;47.39;101644.38;5058988;28;45463;-48
2023/08/22 00:55:58;;;;;;;;;2.00;1.00;;;;;24.19;46.81;101635.59;5058687;28;46145;-49
2023/08/22 00:58:24;;;;;;;;;0.50;0.50;;;;;24.20;47.42;101639.16;5058502;28;45371;-50
2023/08/22 01:00:49;;;;;;;;;1.00;1.00;;;;;24.17;46.99;101645.00;5058935;28;45336;-46
2023/08/22 01:03:15;;;;;;;;;1.00;1.00;;;;;24.16;47.10;101641.47;5058739;28;45419;-47
2023/08/22 01:05:52;;;;;;;;;2.50;1.50;;;;;24.13;47.33;101639.16;5058603;28;45480;-47
2023/08/22 01:08:24;;;;;;;;;2.60;2.00;;;;;24.09;47.61;101636.03;5059118;28;45307;-51
2023/08/22 01:10:53;;;;;;;;;0.60;0.60;;;;;24.03;47.52;101622.50;5058657;28;45419;-47
2023/08/22 01:13:30;;;;;;;;;1.40;1.40;;;;;24.03;47.02;101627.91;5059106;28;45423;-48
2023/08/22 01:15:56;;;;;;;;;11.00;8.20;;;;;24.05;47.90;101628.53;5058505;28;45281;-50
2023/08/22 01:18:22;;;;;;;;;3.20;2.20;;;;;24.02;47.59;101627.09;5058365;28;45507;-48
2023/08/22 01:20:47;;;;;;;;;2.75;2.75;;;;;24.00;47.99;101629.16;5058680;28;45386;-49
2023/08/22 01:23:13;;;;;;;;;1.50;1.50;;;;;24.03;47.41;101628.75;5058684;28;45498;-47
2023/08/22 01:25:38;;;;;;;;;2.75;1.75;;;;;24.00;47.89;101623.75;5058247;28;46406;-45
2023/08/22 01:28:22;;;;;;;;;1.00;1.00;;;;;24.04;47.70;101624.97;5058237;28;45411;-49
2023/08/22 01:31:14;;;;;;;;;1.80;1.80;;;;;24.08;47.47;101622.66;5058633;28;45300;-51
2023/08/22 01:33:48;;;;;;;;;2.00;2.00;;;;;24.06;47.36;101612.03;5058231;28;45212;-50
2023/08/22 01:36:17;;;;;;;;;4.60;1.20;;;;;24.05;47.64;101615.75;5057858;28;45416;-50
2023/08/22 01:38:45;;;;;;;;;2.80;2.00;;;;;24.03;47.50;101615.16;5056497;28;45416;-51
2023/08/22 01:41:11;;;;;;;;;1.20;1.20;;;;;24.03;47.71;101623.31;5058412;28;45449;-50
2023/08/22 01:43:38;;;;;;;;;1.00;1.00;;;;;24.01;47.78;101621.84;5058545;28;45432;-51
2023/08/22 01:46:05;;;;;;;;;2.80;1.60;;;;;23.94;47.88;101613.75;5057967;28;46635;-46
2023/08/22 01:48:30;;;;;;;;;4.60;1.40;;;;;23.83;47.93;101593.47;5058217;28;45423;-47
2023/08/22 01:50:56;;;;;;;;;1.75;1.75;;;;;23.79;47.83;101597.66;5057938;28;45230;-47
2023/08/22 01:53:21;;;;;;;;;0.75;0.75;;;;;23.69;48.30;101597.28;5058369;28;45345;-48
2023/08/22 01:55:46;;;;;;;;;0.75;0.75;;;;;23.73;48.38;101608.56;5058028;28;46955;-51
2023/08/22 01:58:12;;;;;;;;;3.00;1.00;;;;;23.68;48.48;101602.91;5058037;28;45602;-48
2023/08/22 02:00:41;;;;;;;;;2.00;2.00;;;;;23.64;48.45;101600.63;5057633;28;45385;-47
2023/08/22 02:03:06;;;;;;;;;2.80;2.00;;;;;23.63;48.47;101601.66;5058394;28;45498;-53
2023/08/22 02:05:31;;;;;;;;;3.50;1.75;;;;;23.61;48.93;101592.88;5057724;28;45796;-51
2023/08/22 02:07:59;;;;;;;;;0.75;0.75;;;;;23.54;48.91;101581.19;5058016;28;45290;-50
2023/08/22 02:10:24;;;;;;;;;2.00;2.00;;;;;23.57;49.28;101582.66;5057489;28;45474;-50
2023/08/22 02:12:50;;;;;;;;;1.00;1.00;;;;;23.51;49.25;101581.63;5058171;28;45153;-46
2023/08/22 02:15:15;;;;;;;;;2.75;1.00;;;;;23.47;49.20;101576.81;5057587;28;46997;-48
2023/08/22 02:17:40;;;;;;;;;2.50;2.00;;;;;23.49;49.33;101585.59;5056189;28;45435;-48
2023/08/22 02:20:07;;;;;;;;;3.25;1.00;;;;;23.46;49.55;101588.72;5057695;28;45417;-49
2023/08/22 02:22:37;;;;;;;;;2.00;2.00;;;;;23.46;49.06;101594.16;5058096;28;45423;-48
2023/08/22 02:25:04;;;;;;;;;1.20;1.20;;;;;23.42;49.54;101599.16;5057622;28;46783;-48
2023/08/22 02:27:30;;;;;;;;;1.60;1.00;;;;;23.38;49.80;101597.94;5057535;28;45363;-47
2023/08/22 02:29:55;;;;;;;;;0.75;0.75;;;;;23.37;49.40;101598.97;5057714;28;45714;-49
2023/08/22 02:32:20;;;;;;;;;2.00;2.00;;;;;23.36;49.65;101591.88;5057739;28;45171;-48
2023/08/22 02:34:46;;;;;;;;;1.25;1.25;;;;;23.32;49.71;101580.59;5057057;28;45345;-48
2023/08/22 02:37:12;;;;;;;;;3.75;2.75;;;;;23.36;49.88;101581.03;5057376;28;45292;-47
2023/08/22 02:39:37;;;;;;;;;2.00;1.00;;;;;23.35;49.94;101582.06;5057288;28;45800;-45
2023/08/22 02:42:03;;;;;;;;;3.00;3.00;;;;;23.32;49.84;101583.31;5057578;28;45362;-46
2023/08/22 02:44:28;;;;;;;;;1.00;1.00;;;;;23.31;49.65;101578.94;5057228;28;46081;-46
2023/08/22 02:46:53;;;;;;;;;3.25;1.00;;;;;23.34;50.10;101580.38;5057163;28;45440;-47
2023/08/22 02:49:19;;;;;;;;;2.75;1.50;;;;;23.33;49.88;101565.16;5057164;28;45336;-47
2023/08/22 02:51:44;;;;;;;;;1.00;1.00;;;;;23.31;49.72;101568.09;5057477;28;45355;-45
2023/08/22 02:54:09;;;;;;;;;2.00;2.00;;;;;23.35;50.21;101573.94;5057060;28;45886;-49
2023/08/22 02:56:34;;;;;;;;;0.25;0.00;;;;;23.36;49.69;101567.44;5056953;28;45513;-52
2023/08/22 02:59:00;;;;;;;;;0.75;0.75;;;;;23.35;49.64;101565.78;5057286;28;45410;-48
2023/08/22 03:01:25;;;;;;;;;1.50;0.75;;;;;23.38;50.04;101573.50;5057125;28;45379;-48
2023/08/22 03:03:54;;;;;;;;;1.25;1.25;;;;;23.38;49.87;101570.78;5056650;28;45642;-47
2023/08/22 03:06:19;;;;;;;;;1.00;1.00;;;;;23.39;49.99;101578.72;5056761;28;45449;-51
2023/08/22 03:08:44;;;;;;;;;2.75;1.75;;;;;23.38;50.10;101571.59;5057182;28;45894;-48
2023/08/22 03:11:10;;;;;;;;;3.50;2.00;;;;;23.39;49.96;101573.31;5056001;28;45387;-49
2023/08/22 03:13:35;;;;;;;;;5.00;2.25;;;;;23.39;50.16;101577.91;5056473;28;46249;-49
2023/08/22 03:16:02;;;;;;;;;2.25;2.00;;;;;23.35;50.24;101574.75;5056900;28;45174;-46
2023/08/22 03:18:27;;;;;;;;;1.00;1.00;;;;;23.37;50.61;101574.53;5056658;28;45473;-48
2023/08/22 03:20:56;;;;;;;;;3.75;0.75;;;;;23.36;50.13;101564.72;5057189;28;45462;-48
2023/08/22 03:23:22;;;;;;;;;3.00;1.60;;;;;23.31;50.41;101567.25;5056613;28;45461;-51
2023/08/22 03:26:02;;;;;;;;;1.40;1.40;;;;;23.34;50.22;101583.09;5056285;28;45388;-49
2023/08/22 03:28:29;;;;;;;;;2.00;2.00;;;;;23.32;50.26;101572.47;5056729;28;45422;-47
2023/08/22 03:30:59;;;;;;;;;1.40;1.40;;;;;23.31;49.74;101581.66;5056837;28;45406;-47
2023/08/22 03:33:25;;;;;;;;;1.00;1.00;;;;;23.27;50.44;101577.69;5056294;28;46199;-47
2023/08/22 03:35:51;;;;;;;;;1.25;1.25;;;;;23.26;50.43;101575.16;5056599;28;45411;-51
2023/08/22 03:38:17;;;;;;;;;2.60;1.40;;;;;23.20;50.55;101567.88;5056444;28;45430;-50
2023/08/22 03:40:42;;;;;;;;;1.50;1.50;;;;;23.15;50.20;101563.09;5056864;28;45596;-48
2023/08/22 03:43:07;;;;;;;;;2.00;2.00;;;;;23.17;50.48;101571.84;5038316;28;45374;-47
2023/08/22 03:45:33;;;;;;;;;1.50;0.75;;;;;23.16;50.82;101581.88;5056596;28;45462;-47
2023/08/22 03:48:03;;;;;;;;;4.00;2.00;;;;;23.10;50.57;101562.88;5056235;28;45311;-49
2023/08/22 03:50:29;;;;;;;;;1.50;1.50;;;;;23.14;50.65;101575.00;5056597;28;45506;-45
2023/08/22 03:52:54;;;;;;;;;2.00;2.00;;;;;23.14;50.49;101570.41;5056008;28;47414;-48
2023/08/22 03:55:19;;;;;;;;;1.00;1.00;;;;;23.18;50.43;101573.53;5056162;28;45285;-48
2023/08/22 03:57:45;;;;;;;;;1.00;1.00;;;;;23.19;50.49;101580.63;5056304;28;45443;-43
2023/08/22 04:00:11;;;;;;;;;1.00;1.00;;;;;23.20;50.49;101578.75;5056339;28;45596;-47
2023/08/22 04:02:36;;;;;;;;;1.40;1.40;;;;;23.20;50.54;101576.84;5055881;28;46165;-49
2023/08/22 04:05:02;;;;;;;;;1.75;1.50;;;;;23.21;50.64;101580.41;5056081;28;45274;-45
2023/08/22 04:07:27;;;;;;;;;1.50;1.50;;;;;23.17;50.97;101574.56;5056157;28;45285;-45
2023/08/22 04:09:52;;;;;;;;;2.25;0.75;;;;;23.20;50.46;101567.88;5056300;28;45517;-48
2023/08/22 04:12:18;;;;;;;;;7.00;2.25;;;;;23.19;50.50;101577.06;5056005;28;46098;-46
2023/08/22 04:14:43;;;;;;;;;3.25;2.00;;;;;23.21;50.77;101575.81;5055974;28;45374;-46
2023/08/22 04:17:08;;;;;;;;;2.00;2.00;;;;;23.21;50.53;101577.69;5056044;28;45273;-46
2023/08/22 04:19:34;;;;;;;;;2.00;2.00;;;;;23.21;50.66;101574.97;5056133;28;45777;-47
2023/08/22 04:21:59;;;;;;;;;1.75;1.75;;;;;23.19;51.02;101583.34;5056354;28;46289;-48
2023/08/22 04:24:24;;;;;;;;;4.50;1.00;;;;;23.18;50.84;101575.41;5062491;28;45406;-47
2023/08/22 04:26:51;;;;;;;;;3.00;3.00;;;;;23.13;50.75;101568.75;5062392;28;45566;-49
2023/08/22 04:29:16;;;;;;;;;1.60;1.00;;;;;23.20;50.96;101579.56;5062677;28;45523;-46
2023/08/22 04:31:42;;;;;;;;;3.25;1.75;;;;;23.15;51.05;101582.09;5062523;28;45402;-46
2023/08/22 04:34:08;;;;;;;;;1.20;1.20;;;;;23.15;50.90;101587.50;5062079;28;45401;-47
2023/08/22 04:36:33;;;;;;;;;1.50;1.50;;;;;23.16;50.91;101584.56;5062430;28;45457;-47
2023/08/22 04:38:58;;;;;;;;;1.75;1.75;;;;;23.15;50.76;101579.38;5062659;28;45447;-46
2023/08/22 04:41:24;;;;;;;;;3.00;1.50;;;;;23.12;50.80;101580.63;5062389;28;47053;-48
2023/08/22 04:43:49;;;;;;;;;3.00;1.75;;;;;23.10;50.82;101585.44;5062459;28;45165;-46
2023/08/22 04:46:14;;;;;;;;;2.00;2.00;;;;;23.09;50.89;101577.47;5061973;28;45422;-44
2023/08/22 04:48:40;;;;;;;;;1.50;1.50;;;;;23.10;51.01;101568.31;5062803;28;45343;-48
2023/08/22 04:51:05;;;;;;;;;2.50;2.00;;;;;23.08;50.86;101571.22;5061486;28;45434;-47
2023/08/22 04:53:31;;;;;;;;;3.25;1.50;;;;;23.07;51.03;101572.28;5062317;28;45453;-51
2023/08/22 04:55:56;;;;;;;;;2.00;2.00;;;;;23.07;50.77;101580.41;5062379;28;45560;-51
2023/08/22 04:58:21;;;;;;;;;2.75;2.00;;;;;23.07;51.15;101585.00;5062515;28;45212;-49
2023/08/22 05:00:47;;;;;;;;;2.00;2.00;;;;;23.04;51.31;101585.41;5062023;28;46375;-48
2023/08/22 05:03:14;;;;;;;;;1.75;1.75;;;;;23.03;51.36;101579.16;5061858;28;45300;-50
2023/08/22 05:05:40;;;;;;;;;2.00;2.00;;;;;23.04;51.29;101586.25;5062163;28;45347;-48
2023/08/22 05:08:05;;;;;;;;;3.00;2.00;;;;;23.07;51.58;101595.88;5062195;28;45412;-46
2023/08/22 05:10:31;;;;;;;;;2.00;2.00;;;;;23.08;51.23;101584.78;5062069;28;47194;-47
2023/08/22 05:12:56;;;;;;;;;3.50;2.00;;;;;23.10;51.57;101596.28;5061902;28;45450;-46
2023/08/22 05:15:21;;;;;;;;;2.50;2.50;;;;;23.11;51.74;101586.25;5061987;28;45308;-47
2023/08/22 05:17:47;;;;;;;;;1.75;1.75;;;;;23.11;51.37;101589.81;5061665;28;45439;-50
2023/08/22 05:20:13;;;;;;;;;4.25;4.25;;;;;23.16;51.09;101594.59;5060448;28;48372;-46
2023/08/22 05:22:39;;;;;;;;;2.00;2.00;;;;;23.09;51.66;101585.63;5061593;28;45434;-49
2023/08/22 05:25:05;;;;;;;;;6.00;2.00;;;;;23.19;51.42;101598.78;5061994;28;45287;-46
2023/08/22 05:27:31;;;;;;;;;2.40;2.40;;;;;23.23;51.29;101606.31;5062235;28;45570;-50
2023/08/22 05:29:56;;;;;;;;;0.25;0.00;;;;;23.26;51.17;101599.59;5061491;28;46050;-46
2023/08/22 05:32:21;;;;;;;;;2.25;1.50;;;;;23.30;51.38;101600.84;5061787;28;45236;-46
2023/08/22 05:34:46;;;;;;;;;4.00;2.00;;;;;23.32;51.06;101602.31;5058333;28;45418;-48
2023/08/22 05:37:12;;;;;;;;;2.00;2.00;;;;;23.37;51.53;101613.38;5058747;28;45249;-50
2023/08/22 05:39:37;;;;;;;;;5.50;1.75;;;;;23.41;51.44;101608.38;5058254;28;45405;-48
2023/08/22 05:42:03;;;;;;;;;2.75;1.25;;;;;23.45;51.42;101611.50;5058328;28;45422;-48
2023/08/22 05:44:31;;;;;;;;;2.00;2.00;;;;;23.48;51.38;101622.78;5058731;28;45335;-49
2023/08/22 05:46:57;;;;;;;;;44.00;30.33;;;;;23.51;51.76;101622.38;5058460;28;45224;-50
2023/08/22 05:49:22;;;;;;;;;20.50;17.25;;;;;23.53;51.30;101619.44;5056757;28;46878;-47
2023/08/22 05:51:47;;;;;;;;;8.00;7.75;;;;;23.54;51.43;101611.06;5058291;28;45356;-48
2023/08/22 05:54:13;;;;;;;;;2.00;2.00;;;;;23.58;51.42;101614.19;5058308;28;45358;-47
2023/08/22 05:56:38;;;;;;;;;3.75;3.75;;;;;23.57;51.82;101620.69;5058252;28;45424;-46
2023/08/22 05:59:04;;;;;;;;;2.00;2.00;;;;;23.56;51.37;101609.00;5058066;28;46194;-48
2023/08/22 06:01:29;;;;;;;;;4.50;2.50;;;;;23.55;51.85;101606.47;5058446;28;45343;-46
2023/08/22 06:03:55;;;;;;;;;2.75;2.75;;;;;23.53;51.79;101620.28;5058094;28;45375;-49
2023/08/22 06:06:20;;;;;;;;;4.50;3.00;;;;;23.53;51.82;101619.44;5058375;28;45453;-49
2023/08/22 06:08:45;;;;;;;;;5.00;4.75;;;;;23.53;51.80;101633.84;5058101;28;45260;-50
2023/08/22 06:11:11;;;;;;;;;3.25;3.00;;;;;23.56;51.66;101629.88;5058248;28;45339;-47
2023/08/22 06:13:36;;;;;;;;;3.75;3.75;;;;;23.58;51.78;101638.66;5058251;28;45471;-47
2023/08/22 06:16:02;;;;;;;;;1.75;1.75;;;;;23.60;51.59;101648.25;5058379;28;45385;-47
2023/08/22 06:18:28;;;;;;;;;5.25;4.25;;;;;23.63;51.55;101649.69;5057723;28;45722;-48
2023/08/22 06:20:58;;;;;;;;;4.50;4.00;;;;;23.66;51.48;101654.75;5057588;28;45281;-48
2023/08/22 06:23:24;;;;;;;;;3.00;3.00;;;;;23.68;51.40;101651.81;5058027;28;45444;-48
2023/08/22 06:25:49;;;;;;;;;2.75;2.00;;;;;23.76;51.51;101662.47;5057950;28;45291;-47
2023/08/22 06:28:14;;;;;;;;;2.75;2.75;;;;;23.86;51.48;101660.16;5057589;28;45820;-48
2023/08/22 06:30:40;;;;;;;;;2.75;2.50;;;;;24.00;50.88;101672.66;5057347;28;45279;-50
2023/08/22 06:33:05;;;;;;;;;5.50;3.00;;;;;24.19;50.93;101665.50;5057631;28;45552;-50
2023/08/22 06:35:30;;;;;;;;;5.25;3.25;;;;;24.33;49.83;101658.13;5057518;28;45213;-46
2023/08/22 06:37:56;;;;;;;;;3.25;3.00;;;;;24.37;50.06;101652.06;5057132;28;46338;-48
2023/08/22 06:40:22;;;;;;;;;3.00;3.00;;;;;24.42;49.59;101658.75;5057432;28;45414;-48
2023/08/22 06:42:48;;;;;;;;;6.60;3.80;;;;;24.41;50.29;101659.81;5057266;28;45352;-45
2023/08/22 06:45:13;;;;;;;;;3.80;2.60;;;;;24.39;50.20;101658.13;5057303;28;45323;-47
2023/08/22 06:47:39;;;;;;;;;3.75;1.75;;;;;24.45;49.77;101656.44;5056913;28;46238;-48
2023/08/22 06:50:05;;;;;;;;;11.25;11.25;;;;;24.50;49.92;101634.84;5057131;28;45343;-48
2023/08/22 06:52:30;;;;;;;;;7.60;4.80;;;;;24.76;49.57;101643.91;5057346;28;45348;-46
2023/08/22 06:54:56;;;;;;;;;5.75;3.00;;;;;25.05;48.61;101642.47;5057425;28;45439;-49
2023/08/22 06:57:21;;;;;;;;;4.00;2.25;;;;;25.37;48.37;101649.56;5057302;28;45685;-49
2023/08/22 06:59:47;;;;;;;;;7.00;3.00;;;;;25.61;47.59;101652.47;5057038;28;45401;-48
2023/08/22 07:02:12;;;;;;;;;7.00;3.00;;;;;25.78;47.35;101642.69;5057201;28;45410;-50
2023/08/22 07:04:37;;;;;;;;;4.75;4.00;;;;;25.93;46.82;101646.97;5057220;28;45331;-49
2023/08/22 07:07:03;;;;;;;;;3.25;2.75;;;;;26.05;45.62;101656.88;5056734;28;45352;-51
2023/08/22 07:09:28;;;;;;;;;8.75;6.50;;;;;26.29;45.76;101654.28;5056985;28;45241;-53
2023/08/22 07:11:54;;;;;;;;;3.50;3.50;;;;;26.51;45.74;101660.13;5056876;28;45357;-48
2023/08/22 07:14:19;;;;;;;;;4.75;3.00;;;;;26.62;45.37;101662.06;5057476;28;45223;-49
2023/08/22 07:16:44;;;;;;;;;2.00;2.00;;;;;27.10;44.90;101659.28;5056575;28;46250;-52
2023/08/22 07:19:09;;;;;;;;;6.00;3.50;;;;;28.27;42.06;101643.91;5057101;28;45424;-50
2023/08/22 07:21:35;;;;;;;;;3.25;2.75;;;;;29.46;39.46;101657.59;5057073;28;45494;-52
2023/08/22 07:24:00;;;;;;;;;4.50;3.00;;;;;30.46;38.17;101647.44;5057136;28;45469;-47
2023/08/22 07:26:26;;;;;;;;;5.00;3.00;;;;;31.50;36.76;101653.66;5056674;28;46561;-52
2023/08/22 07:28:51;;;;;;;;;2.25;2.25;;;;;32.31;35.12;101645.00;5056791;28;45375;-50
2023/08/22 07:31:16;;;;;;;;;4.00;3.00;;;;;33.03;34.23;101644.06;5056697;28;45425;-46
2023/08/22 07:33:42;;;;;;;;;3.75;3.00;;;;;33.55;33.29;101647.63;5056832;28;45483;-50
2023/08/22 07:36:19;;;;;;;;;4.75;4.75;;;;;34.04;32.81;101641.41;5056102;28;45347;-51
2023/08/22 07:38:44;;;;;;;;;3.80;3.00;;;;;34.55;31.79;101640.34;5056410;28;45359;-51
2023/08/22 07:41:10;;;;;;;;;2.75;2.75;;;;;34.88;30.51;101633.19;5056592;28;45328;-50
2023/08/22 07:43:35;;;;;;;;;4.00;4.00;;;;;34.94;30.70;101640.34;5056768;28;45500;-50
2023/08/22 07:46:01;;;;;;;;;5.00;2.50;;;;;34.94;30.94;101635.66;5056549;28;46447;-50
2023/08/22 07:48:26;;;;;;;;;4.00;3.25;;;;;35.00;31.43;101639.22;5056363;28;45422;-48
2023/08/22 07:50:54;;;;;;;;;4.75;3.75;;;;;35.08;31.16;101641.38;5056223;28;45750;-49
2023/08/22 07:53:19;;;;;;;;;3.20;3.00;;;;;35.27;30.69;101651.69;5056882;28;45343;-50
2023/08/22 07:55:47;;;;;;;;;7.50;3.00;;;;;35.51;30.72;101649.81;5055725;28;45342;-48
2023/08/22 07:58:13;;;;;;;;;2.20;2.20;;;;;35.68;29.55;101643.84;5055593;28;45322;-52
2023/08/22 08:00:38;;;;;;;;;7.20;4.40;;;;;35.69;29.69;101649.09;5056324;28;45434;-52
2023/08/22 08:03:04;;;;;;;;;3.50;2.75;;;;;35.78;29.62;101657.56;5056468;28;45419;-51
2023/08/22 08:05:29;;;;;;;;;2.00;2.00;;;;;35.85;29.53;101652.47;5056080;28;45834;-50
2023/08/22 08:07:55;;;;;;;;;3.00;2.00;;;;;36.09;29.53;101658.03;5055920;28;45252;-51
2023/08/22 08:10:20;;;;;;;;;3.75;3.00;;;;;36.39;28.75;101656.81;5056374;28;45413;-47
2023/08/22 08:12:46;;;;;;;;;2.00;2.00;;;;;36.68;28.70;101655.84;5056264;28;45556;-46
2023/08/22 08:15:11;;;;;;;;;2.00;2.00;;;;;36.94;28.21;101657.13;5056051;28;46240;-51
2023/08/22 08:17:37;;;;;;;;;4.75;2.00;;;;;37.22;27.47;101657.22;5055866;28;45459;-52
2023/08/22 08:20:04;;;;;;;;;3.75;3.00;;;;;37.68;26.39;101664.72;5055906;28;45489;-51
2023/08/22 08:22:30;;;;;;;;;4.00;2.40;;;;;38.41;26.58;101669.31;5056164;28;45224;-50
2023/08/22 08:24:55;;;;;;;;;2.25;2.25;;;;;39.84;24.70;101659.34;5055797;28;46208;-50
2023/08/22 08:27:21;;;;;;;;;3.25;1.50;;;;;41.55;23.42;101655.22;5056053;28;45426;-50
2023/08/22 08:29:47;;;;;;;;;4.50;3.25;;;;;42.94;21.94;101657.09;5055899;28;45406;-51
2023/08/22 08:32:12;;;;;;;;;3.00;3.00;;;;;44.07;20.38;101659.34;5056079;28;45284;-49
2023/08/22 08:34:37;;;;;;;;;2.75;2.75;;;;;45.03;19.86;101655.78;5055568;28;45762;-48
2023/08/22 08:37:04;;;;;;;;;2.75;2.75;;;;;45.84;19.40;101661.06;5055883;28;45328;-50
2023/08/22 08:39:29;;;;;;;;;2.60;2.00;;;;;46.60;17.86;101664.38;5055723;28;45451;-48
2023/08/22 08:42:09;;;;;;;;;3.00;3.00;;;;;47.17;17.49;101668.31;5055994;28;45498;-46
2023/08/22 08:44:36;;;;;;;;;3.00;2.40;;;;;47.97;17.05;101658.78;5055687;28;46511;-48
2023/08/22 08:47:03;;;;;;;;;4.00;1.80;;;;;48.61;16.16;101663.69;5055186;28;45303;-49
2023/08/22 08:49:32;;;;;;;;;1.60;1.60;;;;;49.15;15.95;101657.44;5055707;28;45281;-47
2023/08/22 08:52:00;;;;;;;;;2.80;2.80;;;;;49.83;15.21;101669.31;5055919;28;45543;-47
2023/08/22 08:54:27;;;;;;;;;5.20;2.80;;;;;50.10;15.38;101669.84;5055161;28;46373;-49
2023/08/22 08:56:52;;;;;;;;;3.20;3.00;;;;;50.35;15.42;101658.66;5055058;28;45311;-50
2023/08/22 08:59:17;;;;;;;;;1.75;1.75;;;;;50.75;14.48;101661.66;5055417;28;45548;-47
2023/08/22 09:01:45;;;;;;;;;2.25;2.00;;;;;51.45;14.54;101660.09;5055423;28;45307;-44
2023/08/22 09:04:10;;;;;;;;;4.40;2.80;;;;;52.07;13.40;101651.09;5055754;28;46523;-49
2023/08/22 09:06:37;;;;;;;;;3.75;2.00;;;;;52.50;13.68;101650.91;5054970;28;45417;-45
2023/08/22 09:09:05;;;;;;;;;1.60;0.80;;;;;52.54;12.62;101643.19;5055719;28;45603;-45
2023/08/22 09:11:31;;;;;;;;;2.00;1.80;;;;;53.02;13.72;101648.19;5059281;28;45256;-46
2023/08/22 09:13:57;;;;;;;;;1.50;1.50;;;;;53.44;12.63;101648.22;5058396;28;45225;-47
2023/08/22 09:16:24;;;;;;;;;5.40;3.00;;;;;53.93;12.87;101649.78;5058974;28;45423;-51
2023/08/22 09:18:49;;;;;;;;;1.40;1.40;;;;;54.08;11.21;101642.69;5058692;28;45382;-45
2023/08/22 09:21:16;;;;;;;;;2.25;2.25;;;;;54.35;12.16;101653.31;5058951;28;45401;-51
2023/08/22 09:23:42;;;;;;;;;8.40;2.40;;;;;54.74;12.08;101643.41;5058577;28;46557;-50
2023/08/22 09:26:09;;;;;;;;;2.75;1.00;;;;;55.01;10.95;101647.06;5058494;28;45643;-50
2023/08/22 09:28:43;;;;;;;;;2.40;1.60;;;;;55.18;11.46;101647.22;5058276;28;45240;-59
2023/08/22 09:31:08;;;;;;;;;2.80;1.40;;;;;55.39;11.28;101649.69;5058731;28;45531;-48
2023/08/22 09:33:45;;;;;;;;;1.25;1.25;;;;;55.39;11.37;101654.59;5058512;28;46041;-49
2023/08/22 09:36:10;;;;;;;;;4.00;1.00;;;;;55.66;11.31;101651.63;5058261;28;45518;-51
2023/08/22 09:38:53;;;;;;;;;2.75;1.00;;;;;55.83;11.04;101653.34;5058338;28;45347;-54
2023/08/22 09:41:23;;;;;;;;;2.00;0.20;;;;;55.98;11.07;101653.88;5058667;28;45418;-51
2023/08/22 09:43:54;;;;;;;;;2.00;0.80;;;;;56.09;10.15;101640.19;5058221;28;45536;-51
2023/08/22 09:46:23;;;;;;;;;1.60;1.60;;;;;56.11;11.57;101646.28;5058163;28;45319;-50
2023/08/22 09:48:49;;;;;;;;;2.00;1.00;;;;;56.26;10.44;101649.59;5058486;28;45421;-51
2023/08/22 09:51:19;;;;;;;;;1.80;0.80;;;;;56.42;10.56;101651.72;5058252;28;45508;-53
2023/08/22 09:53:51;;;;;;;;;1.00;1.00;;;;;56.60;10.09;101643.56;5058058;28;45387;-50
2023/08/22 09:56:18;;;;;;;;;1.00;0.20;;;;;56.71;9.74;101641.25;5057793;28;45515;-47
2023/08/22 09:58:44;;;;;;;;;2.60;1.20;;;;;56.66;9.93;101650.31;5058152;28;45367;-50
2023/08/22 10:01:14;;;;;;;;;2.75;1.25;;;;;56.56;10.72;101644.84;5058245;28;45561;-51
2023/08/22 10:03:40;;;;;;;;;3.00;0.25;;;;;56.56;10.52;101642.84;5057998;28;45415;-50
2023/08/22 10:06:12;;;;;;;;;2.00;0.80;;;;;56.73;11.13;101640.81;5057926;28;45530;-47
2023/08/22 10:08:42;;;;;;;;;1.20;1.20;;;;;56.95;10.95;101646.78;5058140;28;45338;-49
2023/08/22 10:11:10;;;;;;;;;1.20;0.80;;;;;56.97;10.38;101641.41;5057970;28;45668;-50
2023/08/22 10:13:37;;;;;;;;;0.60;0.60;;;;;57.06;9.75;101638.75;5057311;28;46909;-47
2023/08/22 10:16:03;;;;;;;;;0.40;0.40;;;;;57.12;9.89;101630.44;5058066;28;45999;-51
2023/08/22 10:18:29;;;;;;;;;0.75;0.00;;;;;57.09;10.07;101622.75;5057941;28;45306;-48
2023/08/22 10:20:55;;;;;;;;;2.00;0.00;;;;;57.26;9.71;101624.31;5057653;28;45446;-48
2023/08/22 10:23:51;;;;;;;;;0.40;0.40;;;;;57.28;10.23;101621.84;5057664;28;45577;-46
2023/08/22 10:26:20;;;;;;;;;1.20;0.20;;;;;57.51;10.55;101629.38;5057839;28;45401;-49
2023/08/22 10:29:12;;;;;;;;;0.00;0.00;;;;;57.60;9.37;101623.00;5057863;28;45392;-49
2023/08/22 10:32:02;;;;;;;;;0.00;0.00;;;;;57.46;9.00;101622.16;5058000;28;45375;-52
2023/08/22 10:34:33;;;;;;;;;0.25;0.25;;;;;57.52;10.42;101624.47;5057544;28;45506;-51
2023/08/22 10:37:00;;;;;;;;;1.50;1.50;;;;;57.47;9.16;101603.72;5057470;28;45336;-51
2023/08/22 10:39:41;;;;;;;;;3.00;2.50;;;;;57.82;9.73;101614.59;5057599;28;45345;-52
2023/08/22 10:42:15;;;;;;;;;2.25;2.25;;;;;57.93;10.34;101613.06;5057734;28;45602;-49
2023/08/22 10:44:42;;;;;;;;;1.50;1.50;;;;;57.90;9.33;101613.13;5056130;28;47356;-50
2023/08/22 10:47:14;;;;;;;;;3.80;2.20;;;;;57.76;8.69;101605.00;5057279;28;45447;-47
2023/08/22 10:49:40;;;;;;;;;3.80;3.80;;;;;57.81;10.66;101604.41;5057556;28;45664;-50
2023/08/22 10:52:07;;;;;;;;;3.00;2.75;;;;;57.68;9.28;101610.13;5057689;28;45410;-50
2023/08/22 10:54:53;;;;;;;;;2.00;1.75;;;;;57.72;9.43;101602.22;5057265;28;45483;-50
2023/08/22 10:57:19;;;;;;;;;3.25;1.75;;;;;57.75;9.13;101591.94;5057165;28;45514;-50
2023/08/22 10:59:59;;;;;;;;;0.50;0.50;;;;;57.75;9.58;101597.66;5057379;28;45398;-48
2023/08/22 11:02:33;;;;;;;;;1.60;1.60;;;;;57.65;9.84;101599.56;5057372;28;45447;-49
2023/08/22 11:05:00;;;;;;;;;1.40;1.40;;;;;57.64;9.50;101598.78;5056874;28;47268;-47
2023/08/22 11:07:27;;;;;;;;;2.40;1.20;;;;;57.70;8.95;101596.97;5056829;28;45438;-48
2023/08/22 11:09:59;;;;;;;;;1.60;1.20;;;;;57.66;10.32;101606.94;5056914;28;45301;-51
2023/08/22 11:12:27;;;;;;;;;1.00;1.00;;;;;57.63;9.61;101600.03;5057185;28;45415;-48
2023/08/22 11:14:53;;;;;;;;;0.00;0.00;;;;;57.45;10.01;101603.41;5056883;28;46538;-50
2023/08/22 11:17:20;;;;;;;;;0.40;0.40;;;;;57.46;9.39;101604.19;5056874;28;45731;-50
2023/08/22 11:19:47;;;;;;;;;1.00;1.00;;;;;57.57;9.33;101596.09;5056863;28;45313;-50
2023/08/22 11:22:13;;;;;;;;;0.60;0.60;;;;;57.49;10.12;101600.44;5056893;28;45517;-51
2023/08/22 11:24:46;;;;;;;;;1.25;0.00;;;;;57.18;9.40;101582.88;5056408;28;45426;-44